Nearby METAR Reports

 

KSNA - John Wayne Airport, California, USA
Distance from station: NE 2mi, 3km
Updated: Sun, 16-Jan-2022 2:53am PST
Overcast
Overcast
 Wind from calm
Wind: Calm
Temperature: 61°F , 16°C
Dew Point: 52°F , 11°C
Humidity: 72%
Barometer: 30.07 inHg , 1018.3 hPa
Clouds: Overcast
Visibility: 10 miles , 16 km
Cloud details: Overcast 9000 ft
2022/01/16 10:53 KSNA 161053Z AUTO 00000KT 10SM OVC090 16/11 A3007 RMK AO2 SLP182 T01610111
KSLI - Los Alamitos Aaf, California, USA
Distance from station: NW 11mi, 18km
Updated: Sun, 16-Jan-2022 2:58am PST
Overcast
Overcast
 Wind from calm
Wind: Calm
Temperature: 59°F , 15°C
Dew Point: 39°F , 4°C
Humidity: 48%
Barometer: 30.07 inHg , 1018.3 hPa
Clouds: Overcast
Visibility: 10 miles , 16 km
Cloud details: Overcast 9000 ft
2022/01/16 10:58 KSLI 161058Z AUTO 00000KT 10SM OVC090 15/04 A3007 RMK AO2 SLP186 T01540044 $
 
KFUL - Fullerton Muni, California, USA
Distance from station: NNW 16mi, 26km
Updated: Sun, 16-Jan-2022 2:53am PST
Overcast
Overcast
 Wind from ENE
Wind: ENE 7 mph , 11 km/h
Temperature: 66°F , 19°C
Dew Point: 25°F , -4°C
Humidity: 21%
Barometer: 30.07 inHg , 1018.3 hPa
Clouds: Overcast
Visibility: 10 miles , 16 km
Cloud details: Few Clouds 6000 ft
Overcast 10000 ft
2022/01/16 10:53 KFUL 161053Z AUTO 06006KT 10SM FEW060 OVC100 19/M04 A3007 RMK AO2 SLP180 T01941039
KLGB - Long Beach Muni, California, USA
Distance from station: NW 19mi, 30km
Updated: Sun, 16-Jan-2022 2:53am PST
Overcast
Overcast
 Wind from NW
Wind: NW 5 mph , 7 km/h
Temperature: 61°F , 16°C
Dew Point: 43°F , 6°C
Humidity: 52%
Barometer: 30.08 inHg , 1018.6 hPa
Clouds: Overcast
Visibility: 10 miles , 16 km
Cloud details: Overcast 9000 ft
2022/01/16 10:53 KLGB 161053Z AUTO 31004KT 10SM OVC090 16/06 A3008 RMK AO2 SLP184 T01560061 $
 
KAJO - Corona Muni, California, USA
Distance from station: NE 24mi, 39km
Updated: Sun, 16-Jan-2022 2:56am PST
Overcast
Overcast
 Wind from ESE
Wind: ESE 3 mph , 6 km/h
Temperature: 61°F , 16°C
Dew Point: 34°F , 1°C
Humidity: 36%
Barometer: 30.11 inHg , 1019.6 hPa
Clouds: Overcast
Visibility: 10 miles , 16 km
Cloud details: Overcast 9500 ft
2022/01/16 10:56 KAJO 161056Z AUTO 12003KT 10SM OVC095 16/01 A3011 RMK AO2 SLP191 T01560006
KTOA - Torrance Municip, California, USA
Distance from station: WNW 26mi, 42km
Updated: Sat, 15-Jan-2022 7:47pm PST
NOT Current
Overcast
Overcast
 Wind from calm
Wind: Calm
Temperature: 59°F , 15°C
Dew Point: 48°F , 9°C
Humidity: 68%
Barometer: 30.13 inHg , 1020.3 hPa
Clouds: Overcast
Visibility: 10 miles , 16 km
Cloud details: Overcast 6000 ft
2022/01/16 03:47 KTOA 160347Z 00000KT 10SM OVC060 15/09 A3013 RMK LAST
 
KCNO - Chino, California, USA
Distance from station: NE 28mi, 45km
Updated: Sun, 16-Jan-2022 2:53am PST
Overcast
Overcast
 Wind from calm
Wind: Calm
Temperature: 57°F , 14°C
Dew Point: 36°F , 2°C
Humidity: 44%
Barometer: 30.11 inHg , 1019.6 hPa
Clouds: Overcast
Visibility: 10 miles , 16 km
Cloud details: Overcast 9500 ft
2022/01/16 10:53 KCNO 161053Z AUTO 00000KT 10SM OVC095 14/02 A3011 RMK AO2 SLP195 T01390022
KEMT - El Monte, California, USA
Distance from station: NNW 30mi, 48km
Updated: Sat, 15-Jan-2022 6:47pm PST
NOT Current
Mostly cloudy
Mostly cloudy
 Wind from calm
Wind: Calm
Temperature: 63°F , 17°C
Dew Point: 45°F , 7°C
Humidity: 52%
Barometer: 30.14 inHg , 1020.7 hPa
Clouds: Mostly cloudy
Visibility: 10 miles , 16 km
Cloud details: Mostly cloudy 6000 ft
2022/01/16 02:47 KEMT 160247Z 00000KT 10SM BKN060 17/07 A3014
 
KHHR - Hawthorne, California, USA
Distance from station: NW 31mi, 50km
Updated: Sun, 16-Jan-2022 2:53am PST
Mostly cloudy
Mostly cloudy
 Wind from calm
Wind: Calm
Temperature: 63°F , 17°C
Dew Point: 37°F , 3°C
Humidity: 39%
Barometer: 30.09 inHg , 1019 hPa
Clouds: Mostly cloudy
Visibility: 10 miles , 16 km
Cloud details: Mostly cloudy 9000 ft
2022/01/16 10:53 KHHR 161053Z AUTO 00000KT 10SM BKN090 17/03 A3009 RMK AO2 SLP186 T01720033
KPOC - La Verne/Bracket, California, USA
Distance from station: NNE 32mi, 52km
Updated: Sat, 15-Jan-2022 8:47pm PST
NOT Current
Mostly cloudy
Mostly cloudy
 Wind from W
Wind: W 5 mph , 7 km/h
Temperature: 61°F , 16°C
Dew Point: 39°F , 4°C
Humidity: 45%
Barometer: 30.15 inHg , 1021 hPa
Clouds: Mostly cloudy
Visibility: 10 miles , 16 km
Cloud details: Mostly cloudy 7500 ft
2022/01/16 04:47 KPOC 160447Z 28004KT 10SM BKN075 16/04 A3015
 
KONT - Ontario, California, USA
Distance from station: NNE 33mi, 53km
Updated: Sun, 16-Jan-2022 2:53am PST
Mostly cloudy
Mostly cloudy
 Wind from calm
Wind: Calm
Temperature: 55°F , 13°C
Dew Point: 36°F , 2°C
Humidity: 47%
Barometer: 30.10 inHg , 1019.3 hPa
Clouds: Mostly cloudy
Visibility: 10 miles , 16 km
Cloud details: Mostly cloudy 9000 ft
2022/01/16 10:53 KONT 161053Z 00000KT 10SM BKN090 13/02 A3010 RMK AO2 SLP189 T01280022
KRAL - Riverside, California, USA
Distance from station: NE 33mi, 53km
Updated: Sun, 16-Jan-2022 2:53am PST
Overcast
Overcast
 Wind from E
Wind: E 3 mph , 6 km/h
Temperature: 59°F , 15°C
Dew Point: 28°F , -2°C
Humidity: 31%
Barometer: 30.11 inHg , 1019.6 hPa
Clouds: Overcast
Visibility: 10 miles , 16 km
Cloud details: Overcast 9000 ft
2022/01/16 10:53 KRAL 161053Z AUTO 09003KT 10SM OVC090 15/M02 A3011 RMK AO2 SLP182 T01501017
 
KCQT - USC/Los Angeles, California, USA
Distance from station: NW 34mi, 54km
Updated: Sun, 16-Jan-2022 1:52am PST
Overcast
Overcast
 Wind from calm
Wind: Calm
Temperature: 63°F , 17°C
Dew Point: 37°F , 3°C
Humidity: 39%
Barometer: 30.09 inHg , 1019 hPa
Clouds: Overcast
Visibility: 10 miles , 16 km
Cloud details: Overcast 9000 ft
2022/01/16 09:52 KCQT 160952Z AUTO 00000KT 10SM OVC090 17/03 A3009 RMK AO2 SLP188 T01670028
KLAX - LAX/Los Angeles, California, USA
Distance from station: NW 34mi, 55km
Updated: Sun, 16-Jan-2022 2:53am PST
Mostly cloudy
Mostly cloudy
 Wind from NE
Wind: NE 5 mph , 7 km/h
Temperature: 63°F , 17°C
Dew Point: 37°F , 3°C
Humidity: 39%
Barometer: 30.08 inHg , 1018.6 hPa
Clouds: Mostly cloudy
Visibility: 10 miles , 16 km
Cloud details: Mostly cloudy 9000 ft
2022/01/16 10:53 KLAX 161053Z 05004KT 10SM BKN090 17/03 A3008 RMK AO2 SLP185 T01670028 $
 
KAVX - Avalon, California, USA
Distance from station: WSW 35mi, 56km
Updated: Sun, 16-Jan-2022 2:51am PST
Overcast
Overcast
 Wind from E
Wind: E 9 mph , 15 km/h
Temperature: 63°F , 17°C
Dew Point: 28°F , -2°C
Humidity: 27%
Barometer: 30.10 inHg , 1019.3 hPa
Clouds: Overcast
Visibility: 10 miles , 16 km
Cloud details: Mostly cloudy 4000 ft
Overcast 6000 ft
2022/01/16 10:51 KAVX 161051Z AUTO 09008KT 10SM BKN040 OVC060 17/M02 A3010 RMK AO2 SLP183 T01671017